Time;durP1;ratioP1;P1;durP2;ratioP2;P2;SDS_P1;SDS_P2;PMS_P1;PMS_P2;Temp;Humidity;BMP_temperature;BMP_pressure;BME280_temperature;BME280_humidity;BME280_pressure;Samples;Min_cycle;Max_cycle;Signal;HPM_P1;HPM_P2
2021/05/12 00:01:56;;;;;;;6.93;3.10;;;18.70;97.10;;;;;;5051877;28;20032;-79
2021/05/12 00:04:22;;;;;;;10.95;4.15;;;18.60;97.70;;;;;;5052148;28;20025;-79
2021/05/12 00:06:48;;;;;;;8.68;3.92;;;18.60;98.10;;;;;;5052038;28;20029;-78
2021/05/12 00:09:13;;;;;;;5.75;3.30;;;18.70;97.90;;;;;;5052142;28;20560;-80
2021/05/12 00:11:39;;;;;;;8.68;3.28;;;18.60;98.00;;;;;;5052290;28;20041;-77
2021/05/12 00:14:05;;;;;;;5.90;3.10;;;18.60;98.10;;;;;;5052337;28;20082;-76
2021/05/12 00:16:31;;;;;;;7.07;3.10;;;18.60;98.30;;;;;;5022503;28;20033;-79
2021/05/12 00:18:57;;;;;;;6.40;3.55;;;18.60;98.70;;;;;;5032313;28;20049;-78
2021/05/12 00:21:37;;;;;;;8.40;3.00;;;18.60;98.80;;;;;;5039218;28;20563;-77
2021/05/12 00:24:03;;;;;;;;;;;18.50;99.10;;;;;;5052546;28;20025;-77
2021/05/12 00:26:38;;;;;;;6.40;3.00;;;18.50;99.40;;;;;;5052391;28;19970;-78
2021/05/12 00:29:09;;;;;;;8.05;3.10;;;18.50;99.50;;;;;;5052135;28;20079;-78
2021/05/12 00:31:36;;;;;;;5.03;3.03;;;18.40;99.90;;;;;;5034163;28;20036;-79
2021/05/12 00:34:02;;;;;;;10.55;3.85;;;18.50;99.90;;;;;;5052321;28;20428;-78
2021/05/12 00:36:28;;;;;;;7.10;3.45;;;18.30;99.90;;;;;;5051813;28;20024;-79
2021/05/12 00:38:56;;;;;;;6.85;3.28;;;18.10;99.90;;;;;;5051782;28;20087;-79
2021/05/12 00:41:22;;;;;;;6.55;3.25;;;18.10;99.90;;;;;;5034166;28;20488;-82
2021/05/12 00:43:48;;;;;;;7.45;3.47;;;17.90;99.90;;;;;;5051980;28;20496;-79
2021/05/12 00:46:14;;;;;;;7.45;4.05;;;17.80;99.90;;;;;;5051489;28;20100;-79
2021/05/12 00:48:40;;;;;;;5.68;2.85;;;17.70;99.90;;;;;;5033841;28;20029;-79
2021/05/12 00:51:06;;;;;;;7.30;3.33;;;17.90;99.90;;;;;;5051506;28;20028;-79
2021/05/12 00:53:33;;;;;;;4.78;2.80;;;17.90;99.90;;;;;;5051586;28;20032;-77
2021/05/12 00:55:59;;;;;;;5.35;3.17;;;17.90;99.90;;;;;;5051342;28;20045;-79
2021/05/12 00:58:25;;;;;;;5.35;3.30;;;17.60;99.90;;;;;;5051639;28;20025;-77
2021/05/12 01:00:52;;;;;;;4.85;3.10;;;17.30;99.90;;;;;;5033417;28;20049;-79
2021/05/12 01:03:17;;;;;;;6.07;3.55;;;17.30;99.90;;;;;;5051578;28;20033;-79
2021/05/12 01:05:49;;;;;;;7.25;3.20;;;17.70;99.90;;;;;;5051596;28;20082;-82
2021/05/12 01:08:20;;;;;;;6.00;3.30;;;17.70;99.90;;;;;;5051471;28;20025;-82
2021/05/12 01:10:46;;;;;;;6.82;3.10;;;17.80;99.90;;;;;;5051555;28;20029;-85
2021/05/12 01:13:14;;;;;;;4.57;3.05;;;17.70;99.90;;;;;;5051441;28;20029;-83
2021/05/12 01:15:41;;;;;;;6.57;3.33;;;17.90;99.90;;;;;;5033261;28;20392;-80
2021/05/12 01:18:16;;;;;;;6.15;3.25;;;18.10;99.90;;;;;;5051590;28;20469;-81
2021/05/12 01:20:57;;;;;;;6.05;3.10;;;18.20;99.90;;;;;;5051265;28;20049;-78
2021/05/12 01:23:26;;;;;;;8.05;3.22;;;18.10;99.90;;;;;;5011854;28;20029;-79
2021/05/12 01:25:53;;;;;;;6.03;2.90;;;17.70;99.90;;;;;;5011950;28;20367;-81
2021/05/12 01:28:21;;;;;;;4.85;3.08;;;17.20;99.90;;;;;;5010629;28;20029;-79
2021/05/12 01:30:56;;;;;;;7.95;3.15;;;17.60;99.90;;;;;;5011535;28;20021;-79
2021/05/12 01:33:22;;;;;;;6.70;3.83;;;17.70;99.90;;;;;;5011267;28;20034;-78
2021/05/12 01:35:49;;;;;;;6.43;3.58;;;17.80;99.90;;;;;;5011411;28;20037;-78
2021/05/12 01:38:15;;;;;;;5.72;2.90;;;17.90;99.90;;;;;;4993930;28;20029;-77
2021/05/12 01:40:41;;;;;;;6.60;3.35;;;18.00;99.90;;;;;;5011855;28;20109;-79
2021/05/12 01:43:07;;;;;;;6.60;3.30;;;17.90;99.90;;;;;;5011788;28;20113;-76
2021/05/12 01:45:33;;;;;;;4.95;3.03;;;18.00;99.90;;;;;;5011589;28;20381;-76
2021/05/12 01:48:00;;;;;;;6.75;3.08;;;17.80;99.90;;;;;;5011507;28;20469;-82
2021/05/12 01:50:25;;;;;;;5.13;3.03;;;17.80;99.90;;;;;;5011242;28;20091;-79
2021/05/12 01:52:51;;;;;;;5.35;3.10;;;17.70;99.90;;;;;;5011327;28;20440;-80
2021/05/12 01:55:17;;;;;;;7.22;3.08;;;17.60;99.90;;;;;;5011292;28;20036;-77
2021/05/12 01:57:44;;;;;;;6.90;3.10;;;17.60;99.90;;;;;;5011234;28;20482;-78
2021/05/12 02:00:19;;;;;;;7.00;3.40;;;17.60;99.90;;;;;;5011379;28;20109;-79
2021/05/12 02:02:45;;;;;;;8.32;3.70;;;17.10;99.90;;;;;;5011157;28;20030;-79
2021/05/12 02:05:11;;;;;;;4.63;3.03;;;17.10;99.90;;;;;;5010948;28;20030;-75
2021/05/12 02:07:37;;;;;;;5.93;3.08;;;17.20;99.90;;;;;;5011240;28;20029;-78
2021/05/12 02:10:03;;;;;;;9.40;3.70;;;17.40;99.90;;;;;;5011226;28;20605;-81
2021/05/12 02:12:29;;;;;;;6.05;3.97;;;17.50;99.90;;;;;;5010699;28;20049;-80
2021/05/12 02:14:55;;;;;;;10.68;3.50;;;17.60;99.90;;;;;;5011352;28;20032;-80
2021/05/12 02:17:20;;;;;;;6.32;3.22;;;17.60;99.90;;;;;;5010900;28;20354;-78
2021/05/12 02:19:47;;;;;;;7.97;3.40;;;17.40;99.90;;;;;;5010837;28;20060;-80
2021/05/12 02:22:13;;;;;;;7.10;3.55;;;17.40;99.90;;;;;;5032285;28;20024;-79
2021/05/12 02:24:39;;;;;;;8.82;3.63;;;17.40;99.90;;;;;;5032972;28;20075;-76
2021/05/12 02:27:05;;;;;;;6.55;4.13;;;17.30;99.90;;;;;;5050864;28;20029;-78
2021/05/12 02:29:31;;;;;;;11.40;3.95;;;17.20;99.90;;;;;;5050789;28;20380;-80
2021/05/12 02:31:57;;;;;;;5.88;3.28;;;17.00;99.90;;;;;;5050207;28;20033;-76
2021/05/12 02:34:23;;;;;;;9.73;3.78;;;17.00;99.90;;;;;;5050520;28;20032;-78
2021/05/12 02:36:48;;;;;;;7.55;3.53;;;16.90;99.90;;;;;;5050654;28;20029;-80
2021/05/12 02:39:14;;;;;;;6.70;3.78;;;16.90;99.90;;;;;;5049860;28;20079;-75
2021/05/12 02:41:40;;;;;;;7.43;4.05;;;16.90;99.90;;;;;;5034915;28;20029;-79
2021/05/12 02:44:06;;;;;;;6.78;3.35;;;16.90;99.90;;;;;;5016349;28;20033;-80
2021/05/12 02:46:31;;;;;;;6.47;3.17;;;17.00;99.90;;;;;;5034205;28;20017;-81
2021/05/12 02:48:57;;;;;;;8.68;4.57;;;16.90;99.90;;;;;;5034146;28;20032;-77
2021/05/12 02:51:23;;;;;;;13.98;3.92;;;17.00;99.90;;;;;;5033815;28;20051;-82
2021/05/12 02:53:49;;;;;;;6.75;3.38;;;16.90;99.90;;;;;;5034223;28;20041;-79
2021/05/12 02:56:14;;;;;;;7.10;3.53;;;17.00;99.90;;;;;;5034015;28;20535;-78
2021/05/12 02:58:40;;;;;;;10.23;3.60;;;17.00;99.90;;;;;;5033723;28;20040;-79
2021/05/12 03:01:06;;;;;;;8.45;3.78;;;16.20;99.90;;;;;;5034070;28;20021;-79
2021/05/12 03:03:31;;;;;;;6.75;4.03;;;16.40;99.90;;;;;;5033912;28;20465;-79
2021/05/12 03:05:57;;;;;;;8.80;3.80;;;16.50;99.90;;;;;;5033803;28;20088;-76
2021/05/12 03:08:23;;;;;;;6.38;3.78;;;16.70;99.90;;;;;;5033755;28;20029;-78
2021/05/12 03:10:49;;;;;;;6.72;3.80;;;16.70;99.90;;;;;;5033763;28;20029;-76
2021/05/12 03:13:15;;;;;;;6.50;3.50;;;16.70;99.90;;;;;;5033645;28;20029;-81
2021/05/12 03:15:41;;;;;;;8.70;3.70;;;16.70;99.90;;;;;;5033281;28;20043;-79
2021/05/12 03:18:07;;;;;;;5.15;3.60;;;16.70;99.90;;;;;;5033670;28;20022;-77
2021/05/12 03:20:34;;;;;;;6.47;3.50;;;16.40;99.90;;;;;;5033514;28;20045;-79
2021/05/12 03:23:00;;;;;;;7.80;3.92;;;16.60;99.90;;;;;;5048864;28;20401;-81
2021/05/12 03:25:27;;;;;;;7.47;3.92;;;16.70;99.90;;;;;;5053717;28;20468;-79
2021/05/12 03:27:53;;;;;;;6.57;4.03;;;16.70;99.90;;;;;;5053377;28;20025;-77
2021/05/12 03:30:29;;;;;;;8.05;3.65;;;16.80;99.90;;;;;;5053136;28;20033;-77
2021/05/12 03:32:57;;;;;;;7.72;3.90;;;16.60;99.90;;;;;;5053051;28;20040;-77
2021/05/12 03:35:23;;;;;;;8.65;3.65;;;16.80;99.90;;;;;;5053485;28;20055;-79
2021/05/12 03:37:49;;;;;;;8.32;3.75;;;16.70;99.90;;;;;;5053171;28;20040;-80
2021/05/12 03:40:16;;;;;;;6.85;3.75;;;16.90;99.90;;;;;;5052989;28;20104;-78
2021/05/12 03:42:42;;;;;;;6.50;3.63;;;16.90;99.90;;;;;;5035528;28;20037;-82
2021/05/12 03:45:09;;;;;;;7.40;3.83;;;17.00;99.90;;;;;;5035216;28;20037;-78
2021/05/12 03:47:35;;;;;;;8.07;4.88;;;17.10;99.90;;;;;;5053291;28;20409;-79
2021/05/12 03:50:03;;;;;;;6.70;3.92;;;17.00;99.90;;;;;;5034979;28;20357;-78
2021/05/12 03:52:29;;;;;;;6.20;3.88;;;17.10;99.90;;;;;;5051953;28;20076;-77
2021/05/12 03:54:55;;;;;;;6.68;3.40;;;17.10;99.90;;;;;;5029950;28;20053;-78
2021/05/12 03:57:21;;;;;;;5.53;3.55;;;17.00;99.90;;;;;;5014481;28;20514;-76
2021/05/12 03:59:46;;;;;;;5.90;3.50;;;15.80;99.90;;;;;;5012513;28;20101;-75
2021/05/12 04:02:12;;;;;;;6.40;3.58;;;16.20;99.90;;;;;;5013211;28;20470;-80
2021/05/12 04:04:38;;;;;;;7.15;3.53;;;16.80;99.90;;;;;;5012963;28;20018;-78
2021/05/12 04:07:04;;;;;;;5.68;3.17;;;17.00;99.90;;;;;;5013061;28;20029;-78
2021/05/12 04:09:30;;;;;;;13.00;3.85;;;17.10;99.90;;;;;;5005950;28;20026;-78
2021/05/12 04:11:56;;;;;;;8.60;3.58;;;17.10;99.90;;;;;;5013443;28;20374;-79
2021/05/12 04:14:21;;;;;;;7.53;3.72;;;17.10;99.90;;;;;;4994923;28;20053;-80
2021/05/12 04:16:49;;;;;;;8.07;3.63;;;17.30;99.90;;;;;;5012963;28;20071;-76
2021/05/12 04:19:15;;;;;;;8.73;4.00;;;17.50;99.90;;;;;;4995064;28;20080;-77
2021/05/12 04:21:41;;;;;;;5.95;3.90;;;17.40;99.90;;;;;;5001341;28;20017;-81
2021/05/12 04:24:07;;;;;;;9.85;4.25;;;17.30;99.90;;;;;;5033900;28;20044;-80
2021/05/12 04:26:32;;;;;;;6.95;3.97;;;17.40;99.90;;;;;;5034480;28;20056;-80
2021/05/12 04:28:58;;;;;;;8.48;4.35;;;17.10;99.90;;;;;;5052151;28;20033;-78
2021/05/12 04:31:24;;;;;;;6.82;4.32;;;17.30;99.90;;;;;;5017649;28;20868;-80
2021/05/12 04:33:50;;;;;;;9.90;4.78;;;16.50;99.90;;;;;;5052105;28;20025;-78
2021/05/12 04:36:16;;;;;;;9.73;5.68;;;16.40;99.90;;;;;;5052110;28;20124;-79
2021/05/12 04:38:42;;;;;;;10.55;5.00;;;16.70;99.90;;;;;;5033901;28;20760;-80
2021/05/12 04:41:07;;;;;;;9.77;5.53;;;17.00;99.90;;;;;;5052297;28;20029;-80
2021/05/12 04:43:33;;;;;;;13.50;6.20;;;17.30;99.90;;;;;;5051838;28;20508;-81
2021/05/12 04:46:00;;;;;;;9.70;5.72;;;17.40;99.90;;;;;;5051733;28;20067;-77
2021/05/12 04:48:25;;;;;;;13.25;6.70;;;17.60;99.90;;;;;;5051859;28;20060;-78
2021/05/12 04:50:51;;;;;;;15.93;6.95;;;17.80;99.90;;;;;;5051785;28;20054;-80
2021/05/12 04:53:17;;;;;;;15.82;6.70;;;17.70;99.90;;;;;;5033785;28;20072;-80
2021/05/12 04:55:43;;;;;;;12.60;5.25;;;17.80;99.90;;;;;;5051457;28;20044;-80
2021/05/12 04:58:09;;;;;;;11.18;6.00;;;17.80;99.90;;;;;;5051564;28;20102;-78
2021/05/12 05:00:35;;;;;;;12.93;5.95;;;17.90;99.90;;;;;;5033565;28;20163;-78
2021/05/12 05:03:03;;;;;;;10.38;4.80;;;17.90;99.90;;;;;;5051053;28;20033;-80
2021/05/12 05:05:29;;;;;;;8.57;4.57;;;17.80;99.90;;;;;;5051971;28;20381;-80
2021/05/12 05:07:55;;;;;;;9.32;4.95;;;17.80;99.90;;;;;;5051551;28;20020;-80
2021/05/12 05:10:21;;;;;;;11.50;5.60;;;17.80;99.90;;;;;;5052117;28;20032;-88
2021/05/12 05:12:46;;;;;;;76.15;44.45;;;17.80;99.90;;;;;;5056477;28;20041;-81
2021/05/12 05:15:13;;;;;;;67.85;43.85;;;18.00;99.90;;;;;;5052651;28;20044;-82
2021/05/12 05:17:41;;;;;;;43.13;27.23;;;18.00;99.90;;;;;;5055734;28;20042;-87
2021/05/12 05:20:13;;;;;;;55.55;36.45;;;18.10;99.90;;;;;;5055504;28;20064;-87
2021/05/12 05:22:39;;;;;;;109.32;65.22;;;18.20;99.90;;;;;;5051586;28;20361;-79
2021/05/12 05:25:06;;;;;;;51.58;32.00;;;18.30;99.90;;;;;;5040752;28;20537;-83
2021/05/12 05:27:32;;;;;;;99.90;58.65;;;18.30;99.90;;;;;;5038799;28;20041;-83
2021/05/12 05:29:57;;;;;;;27.30;16.60;;;18.40;99.90;;;;;;5035048;28;20022;-86
2021/05/12 05:32:23;;;;;;;14.40;7.55;;;18.20;99.90;;;;;;5034792;28;20089;-82
2021/05/12 05:34:49;;;;;;;17.55;9.65;;;17.70;99.90;;;;;;5016180;28;20036;-87
2021/05/12 05:37:15;;;;;;;14.20;8.13;;;18.00;99.90;;;;;;5033152;28;20104;-85
2021/05/12 05:39:41;;;;;;;13.93;5.28;;;18.10;99.90;;;;;;5015410;28;20030;-85
2021/05/12 05:42:09;;;;;;;14.73;7.55;;;18.00;99.90;;;;;;5033255;28;20029;-83
2021/05/12 05:44:35;;;;;;;13.35;7.10;;;18.40;99.90;;;;;;4998103;28;20076;-81
2021/05/12 05:47:02;;;;;;;14.90;6.38;;;18.60;99.90;;;;;;5031021;28;20053;-81
2021/05/12 05:49:28;;;;;;;13.93;7.28;;;18.80;99.90;;;;;;5031307;28;20030;-79
2021/05/12 05:51:54;;;;;;;15.90;7.28;;;19.00;99.90;;;;;;5031479;28;20083;-81
2021/05/12 05:54:20;;;;;;;12.82;6.25;;;18.80;99.90;;;;;;5031057;28;20026;-79
2021/05/12 05:56:47;;;;;;;14.82;6.25;;;18.70;99.90;;;;;;5030579;28;20107;-78
2021/05/12 05:59:12;;;;;;;22.02;7.57;;;19.00;99.90;;;;;;5030704;28;20037;-82
2021/05/12 06:01:38;;;;;;;14.82;6.68;;;19.30;99.90;;;;;;5015669;28;20022;-78
2021/05/12 06:04:04;;;;;;;13.52;6.18;;;19.50;99.90;;;;;;5020405;28;20083;-80
2021/05/12 06:06:30;;;;;;;14.90;6.75;;;19.20;99.90;;;;;;5038024;28;20068;-80
2021/05/12 06:08:56;;;;;;;127.43;84.50;;;19.20;99.90;;;;;;5050425;28;20025;-83
2021/05/12 06:11:22;;;;;;;71.97;46.38;;;19.30;99.90;;;;;;5042130;28;20068;-78
2021/05/12 06:13:49;;;;;;;29.30;18.45;;;19.60;99.90;;;;;;5030742;28;20045;-77
2021/05/12 06:16:16;;;;;;;13.70;7.13;;;19.50;99.90;;;;;;5019062;28;20022;-77
2021/05/12 06:18:42;;;;;;;10.05;5.10;;;19.30;99.90;;;;;;5028779;28;20013;-81
2021/05/12 06:21:08;;;;;;;14.68;4.70;;;19.40;99.90;;;;;;5054077;28;20031;-79
2021/05/12 06:23:34;;;;;;;9.75;4.70;;;19.20;99.90;;;;;;5054397;28;20373;-80
2021/05/12 06:26:01;;;;;;;7.35;3.85;;;19.10;99.90;;;;;;5053553;28;20484;-78
2021/05/12 06:28:26;;;;;;;12.60;4.82;;;19.10;99.90;;;;;;5053964;28;20036;-77
2021/05/12 06:30:52;;;;;;;11.38;4.78;;;19.20;99.90;;;;;;5030118;28;20026;-79
2021/05/12 06:33:19;;;;;;;8.55;4.10;;;19.20;99.90;;;;;;5014271;28;20080;-79
2021/05/12 06:35:45;;;;;;;11.40;3.80;;;19.20;99.90;;;;;;5014294;28;20037;-82
2021/05/12 06:38:11;;;;;;;9.80;3.50;;;19.30;99.90;;;;;;5014286;28;20033;-80
2021/05/12 06:40:37;;;;;;;7.50;3.55;;;19.40;99.90;;;;;;4996176;28;20034;-78
2021/05/12 06:43:06;;;;;;;9.25;3.90;;;19.50;99.90;;;;;;5013868;28;20025;-76
2021/05/12 06:45:32;;;;;;;9.07;4.32;;;19.60;99.90;;;;;;5013636;28;20382;-77
2021/05/12 06:47:58;;;;;;;10.32;3.85;;;19.60;99.90;;;;;;5013976;28;20097;-76
2021/05/12 06:50:25;;;;;;;9.77;4.20;;;19.50;99.90;;;;;;5013637;28;20034;-80
2021/05/12 06:52:55;;;;;;;7.65;3.33;;;19.40;99.90;;;;;;4996305;28;20439;-78
2021/05/12 06:55:22;;;;;;;10.80;3.65;;;19.30;99.90;;;;;;5030606;28;20055;-79
2021/05/12 06:57:48;;;;;;;8.05;3.40;;;19.30;99.90;;;;;;5053271;28;20033;-77
2021/05/12 07:00:14;;;;;;;7.80;3.20;;;19.50;99.90;;;;;;5040074;28;20030;-81
2021/05/12 07:02:40;;;;;;;7.22;3.35;;;19.50;99.90;;;;;;4996079;28;20388;-81
2021/05/12 07:05:06;;;;;;;11.18;3.55;;;19.70;99.90;;;;;;5011113;28;20101;-79
2021/05/12 07:07:32;;;;;;;10.43;3.60;;;19.80;99.80;;;;;;5012125;28;20050;-81
2021/05/12 07:09:58;;;;;;;6.88;3.33;;;19.90;99.90;;;;;;5013426;28;20072;-80
2021/05/12 07:12:25;;;;;;;7.63;3.50;;;19.80;99.90;;;;;;5013306;28;20045;-81
2021/05/12 07:14:50;;;;;;;5.88;2.70;;;19.80;99.90;;;;;;5012866;28;20373;-82
2021/05/12 07:17:16;;;;;;;7.65;3.00;;;19.70;99.90;;;;;;5013609;28;20470;-82
2021/05/12 07:19:42;;;;;;;11.35;3.78;;;19.60;99.90;;;;;;5013191;28;20045;-82
2021/05/12 07:22:08;;;;;;;6.30;3.30;;;19.50;99.90;;;;;;5017393;28;20026;-81
2021/05/12 07:24:34;;;;;;;6.68;3.40;;;19.40;99.90;;;;;;5052958;28;20021;-79
2021/05/12 07:27:29;;;;;;;10.88;3.40;;;19.60;99.90;;;;;;5053168;28;20040;-80
2021/05/12 07:29:54;;;;;;;11.02;3.08;;;19.70;99.90;;;;;;5026679;28;20108;-78
2021/05/12 07:32:20;;;;;;;7.15;3.15;;;19.40;99.90;;;;;;4995398;28;20121;-78
2021/05/12 07:34:50;;;;;;;8.82;3.28;;;19.60;99.90;;;;;;5013261;28;20018;-80
2021/05/12 07:37:16;;;;;;;9.13;3.33;;;19.80;99.90;;;;;;4995505;28;20026;-76
2021/05/12 07:39:42;;;;;;;6.00;3.70;;;19.80;99.90;;;;;;5012881;28;20088;-81
2021/05/12 07:42:08;;;;;;;7.10;3.17;;;19.70;99.90;;;;;;5035249;28;20092;-77
2021/05/12 07:44:40;;;;;;;9.43;3.05;;;19.60;99.90;;;;;;5039438;28;20036;-77
2021/05/12 07:47:06;;;;;;;7.15;3.55;;;19.80;99.90;;;;;;5021043;28;20532;-78
2021/05/12 07:49:31;;;;;;;8.23;2.97;;;20.10;99.90;;;;;;5041142;28;20025;-79
2021/05/12 07:51:57;;;;;;;7.55;2.75;;;20.40;99.00;;;;;;5024117;28;20037;-81
2021/05/12 07:54:23;;;;;;;10.05;3.85;;;20.50;99.60;;;;;;5022317;28;20035;-82
2021/05/12 07:56:49;;;;;;;4.72;3.00;;;20.60;99.90;;;;;;5043013;28;20045;-78
2021/05/12 07:59:17;;;;;;;6.20;2.80;;;20.50;99.10;;;;;;5033096;28;20105;-78
2021/05/12 08:01:45;;;;;;;7.57;3.60;;;20.60;99.20;;;;;;5009853;28;20035;-82
2021/05/12 08:04:11;;;;;;;6.72;3.10;;;20.80;99.30;;;;;;5044950;28;20021;-81
2021/05/12 08:06:37;;;;;;;7.13;2.75;;;20.80;98.70;;;;;;5032236;28;20048;-78
2021/05/12 08:09:05;;;;;;;8.20;2.95;;;20.80;98.90;;;;;;5022891;28;20029;-79
2021/05/12 08:11:31;;;;;;;8.32;3.40;;;20.70;98.60;;;;;;5037840;28;20038;-76
2021/05/12 08:13:57;;;;;;;8.23;3.58;;;20.60;99.70;;;;;;5035675;28;20087;-82
2021/05/12 08:16:22;;;;;;;8.80;3.42;;;20.70;99.80;;;;;;5040825;28;20082;-78
2021/05/12 08:18:48;;;;;;;8.45;3.40;;;20.60;99.90;;;;;;5044086;28;20469;-79
2021/05/12 08:21:14;;;;;;;5.32;3.17;;;20.70;99.90;;;;;;5023894;28;20032;-80
2021/05/12 08:24:04;;;;;;;6.68;3.00;;;20.90;99.30;;;;;;5039351;28;20032;-77
2021/05/12 08:26:30;;;;;;;6.03;2.95;;;20.90;99.30;;;;;;5024472;28;20113;-80
2021/05/12 08:28:59;;;;;;;6.18;3.17;;;21.00;98.60;;;;;;5026751;28;20115;-79
2021/05/12 08:31:26;;;;;;;6.78;2.60;;;20.90;98.80;;;;;;5047771;28;20361;-80
2021/05/12 08:33:52;;;;;;;5.43;2.70;;;20.70;97.90;;;;;;5045717;28;20112;-76
2021/05/12 08:36:18;;;;;;;6.20;2.75;;;20.60;97.50;;;;;;5031717;28;20073;-80
2021/05/12 08:38:46;;;;;;;5.03;2.50;;;20.90;97.60;;;;;;5021194;28;20686;-80
2021/05/12 08:41:16;;;;;;;7.43;3.10;;;21.20;96.00;;;;;;5046344;28;20033;-80
2021/05/12 08:43:42;;;;;;;6.15;3.10;;;21.40;96.30;;;;;;5034857;28;20029;-81
2021/05/12 08:46:10;;;;;;;6.10;3.33;;;21.60;95.60;;;;;;5031500;28;20484;-82
2021/05/12 08:48:40;;;;;;;4.68;2.63;;;21.40;95.70;;;;;;5016424;28;20087;-84
2021/05/12 08:51:10;;;;;;;5.65;2.80;;;21.20;95.80;;;;;;5014223;28;20018;-80
2021/05/12 08:53:37;;;;;;;5.68;2.85;;;21.30;96.70;;;;;;5040102;28;20362;-82
2021/05/12 08:56:22;;;;;;;5.22;2.53;;;21.60;96.70;;;;;;5023514;28;20040;-78
2021/05/12 08:58:49;;;;;;;4.15;2.40;;;21.60;94.90;;;;;;5021627;28;20152;-81
2021/05/12 09:01:18;;;;;;;4.97;2.20;;;21.70;95.20;;;;;;5040846;28;20025;-82
2021/05/12 09:03:44;;;;;;;9.18;3.13;;;22.30;94.00;;;;;;5021079;28;20055;-83
2021/05/12 09:06:11;;;;;;;4.55;2.30;;;22.70;92.90;;;;;;5031871;28;20116;-81
2021/05/12 09:08:37;;;;;;;4.80;2.33;;;22.60;92.50;;;;;;5012119;28;20104;-79
2021/05/12 09:11:03;;;;;;;5.22;2.75;;;22.80;91.30;;;;;;5023578;28;20036;-79
2021/05/12 09:13:29;;;;;;;7.82;2.70;;;22.80;91.60;;;;;;5033326;28;20046;-81
2021/05/12 09:16:14;;;;;;;7.68;3.13;;;22.60;91.00;;;;;;5035725;28;20030;-77
2021/05/12 09:18:40;;;;;;;7.72;3.30;;;23.10;90.90;;;;;;5040881;28;20052;-80
2021/05/12 09:21:06;;;;;;;9.65;2.50;;;22.70;90.50;;;;;;5035697;28;20080;-80
2021/05/12 09:23:41;;;;;;;3.95;2.30;;;22.90;90.70;;;;;;5040815;28;20021;-81
2021/05/12 09:26:15;;;;;;;4.40;2.42;;;23.10;89.60;;;;;;5037303;28;20030;-84
2021/05/12 09:28:41;;;;;;;5.43;2.50;;;22.60;90.60;;;;;;5042923;28;20013;-83
2021/05/12 09:31:08;;;;;;;4.65;2.10;;;22.50;91.10;;;;;;5040006;28;20018;-80
2021/05/12 09:33:38;;;;;;;6.78;2.63;;;22.80;90.90;;;;;;5038299;28;20037;-79
2021/05/12 09:36:04;;;;;;;4.93;2.30;;;23.30;90.30;;;;;;5033862;28;20040;-83
2021/05/12 09:38:32;;;;;;;5.10;2.50;;;24.00;88.50;;;;;;5041944;28;20033;-80
2021/05/12 09:41:12;;;;;;;5.47;2.58;;;24.00;87.80;;;;;;5040286;28;20099;-81
2021/05/12 09:43:50;;;;;;;9.25;3.63;;;23.80;87.80;;;;;;5034211;28;20389;-77
2021/05/12 09:46:19;;;;;;;7.43;2.83;;;23.30;88.80;;;;;;5033624;28;20404;-82
2021/05/12 09:49:00;;;;;;;5.18;2.70;;;23.20;90.00;;;;;;5026700;28;20029;-84
2021/05/12 09:51:28;;;;;;;8.93;2.50;;;23.10;90.30;;;;;;5012079;28;20037;-81
2021/05/12 09:54:08;;;;;;;6.25;2.60;;;23.20;90.40;;;;;;5050005;28;20057;-80
2021/05/12 09:56:38;;;;;;;;;;;23.60;89.10;;;;;;5036180;28;20067;-78
2021/05/12 09:59:07;;;;;;;4.20;2.72;;;23.50;89.20;;;;;;5036591;28;20375;-83
2021/05/12 10:01:47;;;;;;;8.48;3.28;;;23.80;90.30;;;;;;5036413;28;20041;-77
2021/05/12 10:04:35;;;;;;;8.25;2.78;;;24.10;89.30;;;;;;5054462;28;20025;-83
2021/05/12 10:07:13;;;;;;;8.48;3.17;;;24.30;87.70;;;;;;5041294;28;20029;-82
2021/05/12 10:09:41;;;;;;;5.10;2.65;;;24.10;86.70;;;;;;5034433;28;20021;-80
2021/05/12 10:12:33;;;;;;;6.72;3.10;;;24.50;86.50;;;;;;5016575;28;20022;-79
2021/05/12 10:14:59;;;;;;;5.03;2.72;;;24.80;86.70;;;;;;5031097;28;20489;-80
2021/05/12 10:17:28;;;;;;;12.20;3.38;;;25.10;85.70;;;;;;5034717;28;20075;-84
2021/05/12 10:19:55;;;;;;;6.70;2.80;;;24.90;85.50;;;;;;5033921;28;20025;-83
2021/05/12 10:22:21;;;;;;;7.18;2.75;;;24.50;84.40;;;;;;5037392;28;20025;-77
2021/05/12 10:24:49;;;;;;;4.72;2.58;;;24.60;85.00;;;;;;5045254;28;20095;-78
2021/05/12 10:27:16;;;;;;;5.95;2.78;;;25.00;83.90;;;;;;5048552;28;20040;-82
2021/05/12 10:29:50;;;;;;;8.07;2.47;;;25.10;80.80;;;;;;5047716;28;20021;-76
2021/05/12 10:32:24;;;;;;;8.00;3.00;;;25.60;80.10;;;;;;5045610;28;20044;-78
2021/05/12 10:35:06;;;;;;;10.10;2.38;;;25.60;80.10;;;;;;5038889;28;20021;-76
2021/05/12 10:37:40;;;;;;;5.03;2.28;;;25.60;77.40;;;;;;5035494;28;20110;-80
2021/05/12 10:40:38;;;;;;;6.50;2.83;;;26.20;79.70;;;;;;5036650;28;20025;-80
2021/05/12 10:43:40;;;;;;;8.23;2.55;;;25.50;77.80;;;;;;5026497;28;20402;-79
2021/05/12 10:46:03;;;;;;;6.28;2.47;;;25.50;76.60;;;;;;5026840;28;20046;-86
2021/05/12 10:48:39;;;;;;;5.43;2.30;;;25.30;76.50;;;;;;5018793;28;20468;-78
2021/05/12 10:51:31;;;;;;;5.45;2.53;;;25.60;75.60;;;;;;5038438;28;20040;-80
2021/05/12 10:54:01;;;;;;;5.35;2.35;;;25.40;75.70;;;;;;5036217;28;20021;-77
2021/05/12 10:56:53;;;;;;;5.45;2.30;;;25.30;76.00;;;;;;5031221;28;20048;-78
2021/05/12 10:59:25;;;;;;;5.35;2.78;;;25.30;76.20;;;;;;5025415;28;20639;-76
2021/05/12 11:01:55;;;;;;;5.47;2.28;;;25.60;77.50;;;;;;5023155;28;20092;-74
2021/05/12 11:04:22;;;;;;;5.82;2.30;;;26.00;75.30;;;;;;5006148;28;20021;-79
2021/05/12 11:06:52;;;;;;;5.93;2.70;;;26.20;75.10;;;;;;5026709;28;20551;-78
2021/05/12 11:09:35;;;;;;;6.47;2.20;;;26.80;74.40;;;;;;5023356;28;20036;-80
2021/05/12 11:12:09;;;;;;;7.40;3.00;;;25.80;73.40;;;;;;5023866;28;20461;-80
2021/05/12 11:14:37;;;;;;;6.30;3.03;;;25.70;73.40;;;;;;5023156;28;20071;-76
2021/05/12 11:17:18;;;;;;;5.07;3.10;;;25.70;74.90;;;;;;5022497;28;20034;-80
2021/05/12 11:20:04;;;;;;;5.65;3.35;;;26.00;73.60;;;;;;5021610;28;20090;-80
2021/05/12 11:22:38;;;;;;;6.45;3.38;;;25.60;73.20;;;;;;5022632;28;20034;-80
2021/05/12 11:25:19;;;;;;;5.63;3.17;;;25.50;73.40;;;;;;5007816;28;20470;-81
2021/05/12 11:33:28;;;;;;;6.15;2.67;;;25.00;75.90;;;;;;5023366;28;20083;-80
2021/05/12 11:36:03;;;;;;;5.97;2.92;;;24.90;75.30;;;;;;5018689;28;20152;-81
2021/05/12 11:38:30;;;;;;;8.07;2.78;;;25.00;76.20;;;;;;5016653;28;20030;-77
2021/05/12 11:41:00;;;;;;;5.60;2.70;;;24.90;75.90;;;;;;5026752;28;20034;-77
2021/05/12 11:43:34;;;;;;;6.70;2.97;;;24.60;75.70;;;;;;5038801;28;20033;-79
2021/05/12 11:46:23;;;;;;;5.63;3.13;;;24.50;77.00;;;;;;5052666;28;20293;-83
2021/05/12 11:48:59;;;;;;;6.90;2.75;;;24.70;76.70;;;;;;5023330;28;20068;-83
2021/05/12 11:51:37;;;;;;;7.18;2.80;;;24.60;76.40;;;;;;5014694;28;20072;-80
2021/05/12 11:54:14;;;;;;;5.50;2.70;;;24.50;76.80;;;;;;5022690;28;20025;-84
2021/05/12 11:56:52;;;;;;;5.32;2.97;;;24.20;77.30;;;;;;5044991;28;20068;-81
2021/05/12 11:59:23;;;;;;;8.18;3.10;;;24.10;77.40;;;;;;5037342;28;20200;-83
2021/05/12 12:02:10;;;;;;;7.95;3.10;;;24.10;78.20;;;;;;4999941;28;20418;-85
2021/05/12 12:04:39;;;;;;;6.18;2.70;;;24.10;79.60;;;;;;5003520;28;20034;-90
2021/05/12 12:07:06;;;;;;;6.28;2.88;;;24.10;81.00;;;;;;5016693;28;20050;-89
2021/05/12 12:09:32;;;;;;;6.22;3.53;;;24.10;81.90;;;;;;5014817;28;20077;-91
2021/05/12 12:11:59;;;;;;;7.28;2.88;;;24.20;81.90;;;;;;5016641;28;20026;-88
2021/05/12 12:14:32;;;;;;;5.55;2.70;;;24.60;83.10;;;;;;4998258;28;20038;-83
2021/05/12 12:16:59;;;;;;;5.25;2.83;;;24.90;83.50;;;;;;5016703;28;20030;-84
2021/05/12 12:19:25;;;;;;;7.28;3.30;;;25.20;82.10;;;;;;5049249;28;20029;-82
2021/05/12 12:21:56;;;;;;;4.75;2.85;;;25.30;81.90;;;;;;5037431;28;20033;-88
2021/05/12 12:24:27;;;;;;;8.77;2.65;;;25.60;80.00;;;;;;4998608;28;20113;-90
2021/05/12 12:26:54;;;;;;;;;;;26.00;79.70;;;;;;4998177;28;20103;-90
2021/05/12 12:29:28;;;;;;;8.70;2.97;;;26.40;77.90;;;;;;4997150;28;19905;-83
2021/05/12 12:31:56;;;;;;;5.95;2.75;;;26.60;76.20;;;;;;5001102;28;20049;-92
2021/05/12 12:34:34;;;;;;;8.40;3.10;;;26.70;74.90;;;;;;5036014;28;20029;-84
2021/05/12 12:37:06;;;;;;;6.47;3.20;;;27.10;73.40;;;;;;5003612;28;20038;-88
2021/05/12 12:39:47;;;;;;;5.68;2.83;;;27.30;72.90;;;;;;5015089;28;20091;-80
2021/05/12 12:42:17;;;;;;;5.00;2.58;;;27.30;71.30;;;;;;5019820;28;20023;-85
2021/05/12 12:44:45;;;;;;;6.75;2.50;;;27.10;71.40;;;;;;5040320;28;20361;-85
2021/05/12 12:47:20;;;;;;;5.68;2.55;;;27.30;70.30;;;;;;5045885;28;20366;-87
2021/05/12 12:50:14;;;;;;;4.72;2.70;;;27.60;68.50;;;;;;5033358;28;20104;-83
2021/05/12 12:52:41;;;;;;;4.88;2.80;;;27.40;68.50;;;;;;5022806;28;20124;-87
2021/05/12 12:57:47;;;;;;;6.05;2.85;;;27.90;68.10;;;;;;5155092;23;20045;-85
2021/05/12 13:00:29;;;;;;;4.72;2.85;;;27.90;68.60;;;;;;5017103;28;20457;-80
2021/05/12 13:03:14;;;;;;;5.15;2.58;;;27.80;69.30;;;;;;4993414;28;20521;-87